Flight Track Log - Related Links

Times and Time Zones

All times are in EST time to prevent confusion due to time zone crossing. See the SWA1287 flight status page for this flight to view local times or setup timezone preferences in your user account.

Time Position Orientation Groundspeed Altitude Reporting Facility
EST Latitude Longitude Course Direction KTS MPH feet Rate Location/Type
Mon 02:10:27 AM 32.8500 -96.8667 283° West 132 152 1,800  Level Dallas TRACON
Mon 02:11:27 AM 32.8833 -96.9167 308° West 213 245 4,900 3,714 Climbing Dallas TRACON
Mon 02:12:33 AM 32.8333 -96.9667 220° Southwest 295 339 9,600 3,810 Climbing Dallas TRACON
Mon 02:13:33 AM 32.7500 -97.0000 199° South 358 412 12,900 3,190 Climbing Dallas TRACON
Mon 02:15:11 AM 32.5858 -97.0808 203° Southwest 381 438 18,000 3,418 Climbing Fort Center
Mon 02:16:11 AM 32.4867 -97.1275 202° Southwest 393 452 21,900 3,000 Climbing Fort Center
Mon 02:17:11 AM 32.3997 -97.1672 201° Southwest 388 447 24,000 1,041 Climbing Fort Center
Mon 02:18:12 AM 32.2925 -97.2169 201° Southwest 409 471 24,000  Level Fort Center
Mon 02:19:12 AM 32.1869 -97.2653 201° Southwest 406 467 24,000  Level Fort Center
Mon 02:20:12 AM 32.0800 -97.3164 202° Southwest 413 475 24,000  Level Fort Center
Mon 02:21:13 AM 31.9536 -97.3753 202° Southwest 407 468 24,000  Level Fort Center
Mon 02:22:13 AM 31.8683 -97.4133 201° Southwest 399 459 24,000  Level Fort Center
Mon 02:23:13 AM 31.7639 -97.4628 202° Southwest 399 459 24,000  Level Fort Center
Mon 02:24:13 AM 31.6589 -97.5114 202° Southwest 402 463 24,000  Level Fort Center
Mon 02:25:14 AM 31.5528 -97.5603 201° Southwest 405 466 24,000  Level Fort Center
Mon 02:26:14 AM 31.4458 -97.6097 202° Southwest 408 470 24,000  Level Fort Center
Mon 02:27:14 AM 31.3389 -97.6597 202° Southwest 410 472 24,000  Level Fort Center
Mon 02:28:14 AM 31.2325 -97.7078 201° Southwest 409 471 24,000  Level Fort Center
Mon 02:29:14 AM 31.1269 -97.7558 201° Southwest 404 465 24,000  Level Fort Center
Mon 02:30:15 AM 31.0211 -97.8042 201° Southwest 407 468 24,000 -496 Level Fort Center
Mon 02:31:15 AM 30.9156 -97.8528 202° Southwest 406 467 23,000 -1,400 Descending Fort Center
Mon 02:32:15 AM 30.8175 -97.8972 201° Southwest 382 440 21,200 -1,636 Descending Fort Center
Mon 02:33:16 AM 30.7253 -97.9386 201° Southwest 360 414 19,700 -1,190 Descending Fort Center
Mon 02:34:16 AM 30.6311 -97.9814 201° Southwest 359 413 18,800 -950 Descending Fort Center
Mon 02:35:16 AM 30.5361 -98.0225 200° South 361 415 17,800 -650 Descending Fort Center
Mon 02:36:16 AM 30.4428 -98.0636 201° Southwest 358 412 17,500 -645 Descending Fort Center
Mon 02:37:17 AM 30.3514 -98.1053 201° Southwest 353 406 16,500 -1,140 Descending Fort Center
Mon 02:38:17 AM 30.2611 -98.1467 202° Southwest 348 400 15,200 -1,600 Descending Fort Center
Mon 02:39:17 AM 30.1722 -98.1847 200° South 340 391 13,300 -1,050 Descending Fort Center
Mon 02:40:17 AM 30.0908 -98.2219 202° Southwest 322 371 13,100 -1,075 Descending Fort Center
Mon 02:41:31 AM 29.9883 -98.2750 204° Southwest 298 343 10,900 -1,836 Descending Houston Center
Mon 02:42:31 AM 29.9214 -98.3122 206° Southwest 274 315 9,000 -1,869 Descending Houston Center
Mon 02:42:32 AM 29.9206 -98.3147 249° West 267 307 9,000 -2,100 Level Houston Center
Mon 02:43:31 AM 29.8492 -98.3511 204° Southwest 285 328 6,900 -2,100 Descending Houston Center
Mon 02:43:32 AM 29.8483 -98.3522 229° Southwest 284 327 6,900 -1,800 Level Houston Center
Mon 02:44:31 AM 29.7731 -98.3917 204° Southwest 301 346 5,100 -1,770 Descending Houston Center
Mon 02:44:33 AM 29.7725 -98.3928 240° Southwest 301 346 5,100 -1,100 Level Houston Center
Mon 02:45:31 AM 29.7003 -98.4308 205° Southwest 291 335 4,000 -1,082 Descending Houston Center
Mon 02:45:34 AM 29.7003 -98.4306 90° East 293 337 4,000  Level Houston Center
Mon 02:46:32 AM 29.6281 -98.4700 205° Southwest 288 331 4,000  Level Houston Center
Mon 02:46:34 AM 29.6283 -98.4706 300° West 287 330 4,000 -400 Level Houston Center
Mon 02:47:32 AM 29.5681 -98.5172 214° Southwest 265 305 3,600 -393 Descending Houston Center
Mon 02:47:35 AM 29.5636 -98.5214 219° Southwest 252 290 3,600 -857 Level Houston Center
Mon 02:48:35 AM 29.5064 -98.5594 210° Southwest 231 266 2,700 -667 Descending Houston Center
Mon 02:49:32 AM 29.4794 -98.5250 132° Southeast 178 205 2,300 -492 Descending Houston Center
Mon 02:49:36 AM 29.4797 -98.5219 84° East 157 181 2,200 -800 Descending Houston Center
Mon 02:50:32 AM 29.5000 -98.4931 51° Northeast 126 145 1,500 -787 Descending Houston Center
Mon 02:50:37 AM 29.5019 -98.4903 51° Northeast 107 123 1,400 -700 Descending Houston Center
Mon 02:51:32 AM 29.5244 -98.4689 40° Northeast 117 135 800 -655 Descending Houston Center

Login

Don't have an account? Register now (free) for customized features, flight alerts, and more!